Time;durP1;ratioP1;P1;durP2;ratioP2;P2;SDS_P1;SDS_P2;PMS_P1;PMS_P2;Temp;Humidity;BMP_temperature;BMP_pressure;BME280_temperature;BME280_humidity;BME280_pressure;Samples;Min_cycle;Max_cycle;Signal;HPM_P1;HPM_P2
2023/06/26 00:00:13;;;;;;;11.23;9.00;;;;;;;22.17;100.00;98925.69;5129957;27;20190;-77
2023/06/26 00:02:42;;;;;;;10.63;9.15;;;;;;;22.13;100.00;98929.78;5124882;27;20190;-78
2023/06/26 00:05:13;;;;;;;10.65;8.45;;;;;;;21.99;100.00;98928.63;5130731;27;20267;-77
2023/06/26 00:07:42;;;;;;;13.10;8.48;;;;;;;22.02;100.00;98918.50;5121249;27;20194;-77
2023/06/26 00:10:11;;;;;;;11.13;8.45;;;;;;;21.92;100.00;98918.75;5128110;27;20222;-77
2023/06/26 00:12:39;;;;;;;9.90;8.52;;;;;;;21.96;100.00;98918.19;5127835;27;20229;-78
2023/06/26 00:15:09;;;;;;;9.05;7.88;;;;;;;21.98;100.00;98909.91;5126013;27;20190;-77
2023/06/26 00:17:38;;;;;;;9.82;8.00;;;;;;;22.00;100.00;98906.06;5126586;28;20633;-78
2023/06/26 00:20:08;;;;;;;10.77;8.13;;;;;;;22.14;100.00;98901.78;5124337;27;20198;-78
2023/06/26 00:22:40;;;;;;;8.82;7.47;;;;;;;22.09;100.00;98912.25;5137797;27;20261;-78
2023/06/26 00:25:10;;;;;;;9.63;7.97;;;;;;;22.00;100.00;98914.13;5131023;27;20636;-78
2023/06/26 00:27:38;;;;;;;10.50;7.70;;;;;;;21.88;100.00;98920.09;5137877;27;20380;-77
2023/06/26 00:30:09;;;;;;;9.65;7.47;;;;;;;21.64;100.00;98919.19;5128248;27;20239;-77
2023/06/26 00:32:37;;;;;;;9.13;7.53;;;;;;;21.77;100.00;98913.22;5133270;27;20202;-77
2023/06/26 00:35:06;;;;;;;8.73;7.53;;;;;;;21.70;100.00;98912.25;5128998;27;20221;-77
2023/06/26 00:37:35;;;;;;;10.38;7.88;;;;;;;21.66;100.00;98913.63;5130866;27;20205;-78
2023/06/26 00:40:07;;;;;;;8.02;7.22;;;;;;;21.71;100.00;98908.53;5130593;27;20204;-78
2023/06/26 00:42:35;;;;;;;8.77;7.53;;;;;;;21.86;100.00;98912.19;5134390;27;20251;-77
2023/06/26 00:45:04;;;;;;;11.02;8.10;;;;;;;21.62;100.00;98915.00;5131772;27;20213;-78
2023/06/26 00:47:33;;;;;;;11.68;8.25;;;;;;;21.60;100.00;98917.00;5130536;27;20215;-78
2023/06/26 00:50:01;;;;;;;9.40;8.02;;;;;;;21.49;100.00;98922.78;5137199;27;20225;-77
2023/06/26 00:52:30;;;;;;;9.57;8.52;;;;;;;21.43;100.00;98922.47;5129082;27;20198;-77
2023/06/26 00:54:59;;;;;;;10.13;8.50;;;;;;;21.32;100.00;98920.13;5128849;27;20195;-77
2023/06/26 00:57:28;;;;;;;9.63;8.02;;;;;;;21.32;100.00;98914.72;5137161;27;20198;-77
2023/06/26 00:59:57;;;;;;;11.25;8.45;;;;;;;21.32;100.00;98912.03;5129594;27;20252;-78
2023/06/26 01:02:33;;;;;;;10.38;8.40;;;;;;;21.27;100.00;98902.81;5131658;27;20260;-78
2023/06/26 01:05:06;;;;;;;11.57;8.77;;;;;;;21.17;100.00;98902.13;5132689;27;20248;-78
2023/06/26 01:07:37;;;;;;;11.32;9.15;;;;;;;20.77;100.00;98895.81;5133923;27;20186;-78
2023/06/26 01:10:07;;;;;;;12.85;9.40;;;;;;;20.91;100.00;98887.03;5132585;27;20222;-78
2023/06/26 01:12:38;;;;;;;11.85;9.23;;;;;;;20.82;100.00;98890.72;5130230;27;20194;-77
2023/06/26 01:15:07;;;;;;;12.60;9.40;;;;;;;20.96;100.00;98886.53;5129680;27;20221;-78
2023/06/26 01:17:37;;;;;;;15.07;10.20;;;;;;;20.48;100.00;98896.31;5128446;27;20202;-77
2023/06/26 01:20:08;;;;;;;12.90;9.80;;;;;;;20.48;100.00;98891.78;5127088;27;20190;-77
2023/06/26 01:22:45;;;;;;;15.30;11.13;;;;;;;20.57;100.00;98884.53;5130979;27;20195;-77
2023/06/26 01:25:22;;;;;;;13.63;10.82;;;;;;;20.60;100.00;98886.88;5136503;27;20194;-77
2023/06/26 01:27:54;;;;;;;15.38;10.80;;;;;;;20.62;100.00;98881.34;5136560;27;20190;-77
2023/06/26 01:30:23;;;;;;;20.27;13.32;;;;;;;20.45;100.00;98881.31;5132479;27;20221;-78
2023/06/26 01:32:52;;;;;;;19.98;12.85;;;;;;;20.38;100.00;98883.00;5136284;27;20392;-77
2023/06/26 01:35:22;;;;;;;16.40;12.18;;;;;;;20.43;100.00;98879.81;5128935;27;20213;-77
2023/06/26 01:37:50;;;;;;;15.30;11.13;;;;;;;20.38;100.00;98872.22;5130681;27;20190;-77
2023/06/26 01:40:19;;;;;;;17.38;12.52;;;;;;;20.41;100.00;98879.13;5136169;27;20250;-78
2023/06/26 01:42:47;;;;;;;13.55;10.77;;;;;;;20.40;100.00;98875.59;5128650;27;20637;-77
2023/06/26 01:45:25;;;;;;;15.23;11.10;;;;;;;20.40;100.00;98875.59;5136194;27;20350;-77
2023/06/26 01:47:54;;;;;;;15.65;10.23;;;;;;;20.49;100.00;98873.78;5126571;27;20197;-77
2023/06/26 01:50:27;;;;;;;13.93;10.00;;;;;;;20.38;100.00;98871.38;5130317;27;20297;-77
2023/06/26 01:53:03;;;;;;;14.23;10.38;;;;;;;20.36;100.00;98868.00;5133510;27;20234;-78
2023/06/26 01:55:36;;;;;;;11.23;9.10;;;;;;;20.44;100.00;98874.25;5127291;27;20257;-78
2023/06/26 01:58:05;;;;;;;12.73;8.98;;;;;;;20.35;100.00;98859.09;5128908;27;20667;-77
2023/06/26 02:00:37;;;;;;;13.27;9.25;;;;;;;20.26;100.00;98858.25;5128676;27;20247;-77
2023/06/26 02:03:07;;;;;;;11.75;8.80;;;;;;;20.37;100.00;98864.34;5129872;27;20190;-77
2023/06/26 02:05:35;;;;;;;12.05;9.30;;;;;;;20.19;100.00;98854.56;5125605;27;20198;-77
2023/06/26 02:08:04;;;;;;;12.88;9.10;;;;;;;20.21;100.00;98847.16;5129378;27;20192;-77
2023/06/26 02:10:32;;;;;;;13.07;9.55;;;;;;;20.07;100.00;98857.72;5129063;27;20317;-78
2023/06/26 02:13:01;;;;;;;12.00;9.45;;;;;;;20.09;100.00;98855.72;5128336;27;20667;-77
2023/06/26 02:15:29;;;;;;;13.50;8.80;;;;;;;19.95;100.00;98867.97;5128853;27;20227;-77
2023/06/26 02:17:59;;;;;;;10.98;8.85;;;;;;;19.91;100.00;98862.09;5131100;27;20671;-78
2023/06/26 02:20:28;;;;;;;9.95;8.93;;;;;;;20.02;100.00;98855.53;5121662;27;20194;-77
2023/06/26 02:22:56;;;;;;;14.63;10.02;;;;;;;19.92;100.00;98853.00;5132490;27;20232;-77
2023/06/26 02:25:25;;;;;;;11.52;9.50;;;;;;;20.06;100.00;98853.34;5126068;27;20713;-77
2023/06/26 02:27:55;;;;;;;13.68;9.40;;;;;;;19.95;100.00;98863.41;5129740;27;20205;-77
2023/06/26 02:30:23;;;;;;;11.88;9.52;;;;;;;19.85;100.00;98859.19;5128620;27;20274;-78
2023/06/26 02:32:51;;;;;;;12.02;9.15;;;;;;;19.83;100.00;98863.91;5128973;27;20187;-77
2023/06/26 02:35:23;;;;;;;13.20;9.77;;;;;;;19.65;100.00;98864.03;5132435;27;20190;-78
2023/06/26 02:37:51;;;;;;;13.40;10.05;;;;;;;19.60;100.00;98864.53;5123663;27;20203;-76
2023/06/26 02:40:19;;;;;;;13.70;9.23;;;;;;;19.67;100.00;98862.00;5129020;27;20277;-77
2023/06/26 02:42:48;;;;;;;11.85;8.75;;;;;;;19.61;100.00;98863.50;5132032;27;20190;-76
2023/06/26 02:45:16;;;;;;;13.70;9.10;;;;;;;19.53;100.00;98865.31;5122567;27;20202;-77
2023/06/26 02:47:44;;;;;;;13.88;9.70;;;;;;;19.82;100.00;98865.75;5130416;27;20190;-77
2023/06/26 02:50:13;;;;;;;12.18;9.32;;;;;;;19.57;100.00;98864.00;5126970;27;20275;-78
2023/06/26 02:52:43;;;;;;;12.73;9.45;;;;;;;19.55;100.00;98869.50;5130069;27;20222;-77
2023/06/26 02:55:11;;;;;;;14.37;9.70;;;;;;;19.52;100.00;98863.63;5128000;27;20503;-77
2023/06/26 02:57:39;;;;;;;12.67;10.20;;;;;;;19.52;100.00;98858.25;5131081;27;20212;-77
2023/06/26 03:00:11;;;;;;;12.35;10.05;;;;;;;19.55;100.00;98863.28;5130017;27;20194;-77
2023/06/26 03:02:39;;;;;;;13.98;9.63;;;;;;;19.50;100.00;98866.47;5125033;27;20201;-78
2023/06/26 03:05:08;;;;;;;15.50;10.43;;;;;;;19.56;100.00;98865.84;5125453;27;20277;-77
2023/06/26 03:07:36;;;;;;;12.70;10.30;;;;;;;19.51;100.00;98865.47;5128974;27;20259;-77
2023/06/26 03:10:08;;;;;;;14.63;10.68;;;;;;;19.55;100.00;98855.22;5123226;27;20285;-77
2023/06/26 03:12:36;;;;;;;14.57;10.20;;;;;;;19.57;100.00;98854.06;5134509;27;20301;-76
2023/06/26 03:15:05;;;;;;;14.13;10.10;;;;;;;19.45;100.00;98853.50;5128898;27;20202;-77
2023/06/26 03:17:34;;;;;;;13.53;10.80;;;;;;;19.45;100.00;98853.50;5029692;28;20225;-78
2023/06/26 03:20:02;;;;;;;15.45;10.40;;;;;;;19.57;100.00;98850.56;5028553;28;20194;-77
2023/06/26 03:22:30;;;;;;;14.87;10.53;;;;;;;19.38;100.00;98844.41;5027788;28;20229;-77
2023/06/26 03:25:00;;;;;;;14.23;10.50;;;;;;;19.45;100.00;98842.75;5026099;28;20224;-78
2023/06/26 03:27:30;;;;;;;14.23;10.00;;;;;;;19.38;100.00;98847.09;5024671;28;20220;-77
2023/06/26 03:29:58;;;;;;;13.70;9.67;;;;;;;19.46;100.00;98846.28;5027737;28;20204;-76
2023/06/26 03:32:26;;;;;;;10.50;8.87;;;;;;;19.57;100.00;98837.13;5026517;28;20213;-77
2023/06/26 03:34:54;;;;;;;10.23;8.17;;;;;;;19.64;100.00;98838.16;5020567;28;20280;-76
2023/06/26 03:37:23;;;;;;;9.47;7.50;;;;;;;19.48;100.00;98838.06;5028216;28;20201;-77
2023/06/26 03:39:52;;;;;;;9.03;7.47;;;;;;;19.46;100.00;98835.53;5024833;28;20198;-76
2023/06/26 03:42:20;;;;;;;10.30;8.17;;;;;;;19.33;100.00;98838.69;5029479;28;20260;-77
2023/06/26 03:44:51;;;;;;;9.83;8.20;;;;;;;19.37;100.00;98842.72;5030587;28;20197;-76
2023/06/26 03:47:19;;;;;;;10.47;8.03;;;;;;;19.46;100.00;98838.22;5026674;28;20213;-77
2023/06/26 03:49:48;;;;;;;11.93;8.60;;;;;;;19.42;100.00;98842.25;5117603;27;20565;-77
2023/06/26 03:52:16;;;;;;;11.27;8.20;;;;;;;19.29;100.00;98839.16;5124084;27;20214;-76
2023/06/26 03:54:44;;;;;;;11.13;8.47;;;;;;;19.25;100.00;98848.56;5122681;27;20202;-76
2023/06/26 03:57:12;;;;;;;13.57;10.07;;;;;;;19.47;100.00;98841.75;5124631;27;20214;-78
2023/06/26 03:59:40;;;;;;;13.50;9.97;;;;;;;19.44;100.00;98851.81;5124510;27;20226;-76
2023/06/26 04:02:12;;;;;;;14.07;10.25;;;;;;;19.31;100.00;98845.25;5120552;27;20214;-77
2023/06/26 04:04:40;;;;;;;10.63;9.23;;;;;;;19.37;100.00;98848.09;5127373;27;20198;-76
2023/06/26 04:07:09;;;;;;;13.63;9.97;;;;;;;19.40;100.00;98855.84;5126521;27;20202;-76
2023/06/26 04:09:38;;;;;;;12.20;9.57;;;;;;;19.41;100.00;98844.09;5124263;27;20201;-76
2023/06/26 04:12:07;;;;;;;12.57;9.17;;;;;;;19.48;100.00;98840.75;5125138;27;20237;-77
2023/06/26 04:14:36;;;;;;;11.43;8.60;;;;;;;19.67;100.00;98840.50;5031768;28;20570;-77
2023/06/26 04:17:04;;;;;;;10.60;8.97;;;;;;;19.58;100.00;98833.44;5023613;28;20204;-77
2023/06/26 04:19:35;;;;;;;12.27;9.20;;;;;;;19.53;100.00;98833.06;5025885;28;20205;-77
2023/06/26 04:22:05;;;;;;;11.00;8.73;;;;;;;19.61;100.00;98841.19;5026043;28;20739;-77
2023/06/26 04:24:33;;;;;;;13.00;9.68;;;;;;;19.69;100.00;98849.28;5025921;28;20194;-77
2023/06/26 04:27:01;;;;;;;12.13;9.80;;;;;;;19.59;100.00;98852.09;5023854;28;20208;-77
2023/06/26 04:29:30;;;;;;;13.90;9.45;;;;;;;19.56;100.00;98859.63;5021477;28;20198;-77
2023/06/26 04:31:58;;;;;;;12.13;9.63;;;;;;;19.45;100.00;98858.88;5021290;28;20221;-76
2023/06/26 04:34:27;;;;;;;9.85;8.82;;;;;;;19.40;100.00;98855.84;5030210;28;20289;-76
2023/06/26 04:36:56;;;;;;;13.60;9.90;;;;;;;19.64;100.00;98859.66;5025277;28;20205;-77
2023/06/26 04:39:24;;;;;;;10.50;9.23;;;;;;;19.67;100.00;98857.47;5078098;28;20202;-77
2023/06/26 04:41:53;;;;;;;12.73;9.45;;;;;;;19.49;100.00;98858.53;5125780;27;20267;-77
2023/06/26 04:44:21;;;;;;;11.20;8.80;;;;;;;19.72;100.00;98857.84;5128730;27;20218;-77
2023/06/26 04:46:51;;;;;;;10.32;8.77;;;;;;;19.93;100.00;98860.06;5127038;28;20199;-77
2023/06/26 04:49:20;;;;;;;10.35;8.48;;;;;;;20.11;100.00;98864.47;5121869;27;20191;-77
2023/06/26 04:51:50;;;;;;;11.23;8.03;;;;;;;20.23;100.00;98858.59;5122473;27;20208;-77
2023/06/26 04:54:22;;;;;;;11.90;9.10;;;;;;;20.23;100.00;98850.53;5126733;27;20301;-77
2023/06/26 04:56:50;;;;;;;10.18;8.50;;;;;;;20.44;100.00;98854.59;5119612;27;20195;-76
2023/06/26 04:59:18;;;;;;;12.68;9.02;;;;;;;20.50;100.00;98854.75;5126436;27;20198;-77
2023/06/26 05:01:48;;;;;;;11.60;8.80;;;;;;;20.61;100.00;98850.88;5128022;27;20186;-78
2023/06/26 05:04:17;;;;;;;10.85;8.45;;;;;;;20.74;100.00;98850.34;5125596;27;20226;-77
2023/06/26 05:06:45;;;;;;;8.93;8.03;;;;;;;20.83;100.00;98849.34;5128896;27;20281;-77
2023/06/26 05:09:14;;;;;;;9.00;8.05;;;;;;;20.90;100.00;98846.81;5136910;27;20199;-77
2023/06/26 05:11:44;;;;;;;10.25;8.40;;;;;;;20.83;100.00;98842.09;5129338;27;20194;-76
2023/06/26 05:14:13;;;;;;;10.48;7.90;;;;;;;20.96;100.00;98836.19;5133688;27;20213;-76
2023/06/26 05:16:41;;;;;;;8.20;6.63;;;;;;;21.06;100.00;98844.94;5129610;27;20261;-77
2023/06/26 05:19:10;;;;;;;9.15;6.95;;;;;;;21.09;100.00;98841.03;5133704;27;20198;-77
2023/06/26 05:21:39;;;;;;;9.02;7.65;;;;;;;20.95;100.00;98855.22;5127015;27;20273;-77
2023/06/26 05:24:09;;;;;;;8.38;7.57;;;;;;;21.17;100.00;98853.66;5132964;27;20198;-77
2023/06/26 05:26:38;;;;;;;8.45;7.03;;;;;;;21.18;100.00;98858.84;5129086;27;20199;-77
2023/06/26 05:29:09;;;;;;;8.13;6.85;;;;;;;21.22;100.00;98867.41;5129034;27;20197;-77
2023/06/26 05:31:42;;;;;;;8.75;7.10;;;;;;;21.45;100.00;98868.41;5082721;27;20198;-77
2023/06/26 05:34:11;;;;;;;8.15;7.35;;;;;;;21.56;100.00;98865.31;5136473;27;20211;-77
2023/06/26 05:36:42;;;;;;;9.80;7.00;;;;;;;21.64;100.00;98864.44;5126420;27;20657;-77
2023/06/26 05:39:11;;;;;;;11.18;7.63;;;;;;;21.79;100.00;98859.13;5133480;27;20267;-77
2023/06/26 05:41:39;;;;;;;8.82;6.82;;;;;;;21.97;100.00;98857.00;5125634;27;20720;-77
2023/06/26 05:44:10;;;;;;;8.35;7.00;;;;;;;22.07;100.00;98857.63;5129454;27;20282;-77
2023/06/26 05:46:38;;;;;;;7.57;5.97;;;;;;;22.05;100.00;98853.41;5131909;27;20191;-76
2023/06/26 05:49:06;;;;;;;8.63;6.63;;;;;;;22.13;100.00;98853.38;5127520;27;20195;-77
2023/06/26 05:51:35;;;;;;;8.07;7.18;;;;;;;22.10;100.00;98843.81;5136211;27;20205;-77
2023/06/26 05:54:04;;;;;;;8.00;6.93;;;;;;;22.21;100.00;98837.97;5125184;27;20340;-77
2023/06/26 05:56:33;;;;;;;8.02;6.72;;;;;;;22.03;100.00;98839.28;5130831;27;20187;-77
2023/06/26 05:59:03;;;;;;;8.88;7.28;;;;;;;22.14;100.00;98836.19;5123373;27;20191;-77
2023/06/26 06:01:35;;;;;;;10.35;7.20;;;;;;;22.20;100.00;98833.63;5127761;27;20213;-77
2023/06/26 06:04:03;;;;;;;7.95;6.90;;;;;;;22.20;100.00;98835.47;5132888;27;20190;-77
2023/06/26 06:06:31;;;;;;;10.20;7.63;;;;;;;22.18;100.00;98843.72;5131236;27;20198;-76
2023/06/26 06:08:59;;;;;;;8.77;6.88;;;;;;;22.07;100.00;98841.44;5130626;27;20191;-76
2023/06/26 06:11:28;;;;;;;10.15;7.03;;;;;;;22.33;100.00;98842.94;5086961;28;20196;-77
2023/06/26 06:13:56;;;;;;;7.72;6.95;;;;;;;22.39;100.00;98840.38;5087404;28;20243;-77
2023/06/26 06:16:24;;;;;;;8.30;7.10;;;;;;;22.34;100.00;98840.06;5083489;28;20196;-77
2023/06/26 06:18:54;;;;;;;9.43;7.38;;;;;;;22.41;100.00;98837.50;5006067;28;20224;-77
2023/06/26 06:21:22;;;;;;;7.93;7.18;;;;;;;22.57;100.00;98838.16;5005943;28;20206;-77
2023/06/26 06:23:52;;;;;;;10.23;7.25;;;;;;;22.52;100.00;98850.56;5007578;28;20199;-77
2023/06/26 06:26:20;;;;;;;9.23;7.82;;;;;;;22.07;100.00;98848.69;5007894;28;20205;-77
2023/06/26 06:28:48;;;;;;;10.65;7.65;;;;;;;22.13;100.00;98846.13;5018123;28;20241;-77
2023/06/26 06:31:17;;;;;;;8.77;7.85;;;;;;;22.23;100.00;98844.03;5038896;28;20655;-77
2023/06/26 06:33:45;;;;;;;8.70;7.63;;;;;;;22.47;100.00;98839.44;5049326;28;20220;-77
2023/06/26 06:36:15;;;;;;;8.02;7.22;;;;;;;22.61;100.00;98835.13;5053227;27;20198;-77
2023/06/26 06:38:44;;;;;;;11.95;7.35;;;;;;;22.65;100.00;98837.25;5121385;27;20281;-77
2023/06/26 06:41:13;;;;;;;9.23;7.40;;;;;;;22.76;100.00;98838.66;5125036;27;20218;-76
2023/06/26 06:43:42;;;;;;;8.57;7.00;;;;;;;22.72;100.00;98843.59;5124700;27;20206;-77
2023/06/26 06:46:10;;;;;;;9.60;7.63;;;;;;;22.64;100.00;98840.97;5130004;27;20212;-77
2023/06/26 06:48:39;;;;;;;55.15;37.42;;;;;;;22.60;100.00;98841.53;5132167;27;20201;-78
2023/06/26 06:51:07;;;;;;;52.58;36.53;;;;;;;22.92;100.00;98846.66;5130313;27;20196;-76
2023/06/26 06:53:38;;;;;;;11.18;8.23;;;;;;;22.98;100.00;98845.91;5127554;27;20680;-77
2023/06/26 06:56:06;;;;;;;8.68;7.63;;;;;;;23.11;100.00;98846.09;5122881;27;20302;-77
2023/06/26 06:58:35;;;;;;;8.77;7.88;;;;;;;23.22;100.00;98844.78;5132014;27;20194;-77
2023/06/26 07:01:04;;;;;;;9.10;7.20;;;;;;;23.50;100.00;98836.84;5123589;27;20204;-77
2023/06/26 07:03:32;;;;;;;8.40;7.57;;;;;;;23.46;100.00;98843.69;5131919;27;20190;-76
2023/06/26 07:06:01;;;;;;;8.43;7.05;;;;;;;23.50;100.00;98839.56;5134622;27;20205;-77
2023/06/26 07:08:29;;;;;;;8.93;7.65;;;;;;;23.48;100.00;98857.84;5130315;27;20201;-77
2023/06/26 07:10:58;;;;;;;9.35;7.85;;;;;;;23.28;100.00;98845.94;5129743;27;20217;-77
2023/06/26 07:13:27;;;;;;;8.07;7.38;;;;;;;23.28;100.00;98844.06;5131223;27;20301;-77
2023/06/26 07:15:56;;;;;;;8.02;7.22;;;;;;;23.44;100.00;98843.00;5130429;27;20193;-77
2023/06/26 07:18:24;;;;;;;8.95;7.65;;;;;;;23.72;100.00;98845.88;5128005;27;20198;-77
2023/06/26 07:20:52;;;;;;;10.07;7.38;;;;;;;23.50;100.00;98850.38;5124747;27;20198;-77
2023/06/26 07:23:20;;;;;;;8.93;7.70;;;;;;;23.79;100.00;98849.50;5122780;27;20197;-77
2023/06/26 07:25:49;;;;;;;8.57;7.50;;;;;;;24.01;100.00;98844.97;5125955;27;20262;-77
2023/06/26 07:28:19;;;;;;;9.80;8.38;;;;;;;24.08;100.00;98851.28;5134375;27;20235;-77
2023/06/26 07:30:47;;;;;;;8.90;7.78;;;;;;;24.12;100.00;98847.16;5123630;27;20202;-77
2023/06/26 07:33:15;;;;;;;11.55;7.97;;;;;;;24.39;100.00;98842.88;5127333;27;20195;-77
2023/06/26 07:35:44;;;;;;;8.68;7.78;;;;;;;24.57;100.00;98847.81;5126932;27;20186;-77
2023/06/26 07:38:12;;;;;;;9.57;7.53;;;;;;;24.55;100.00;98847.19;5131273;27;20201;-77
2023/06/26 07:40:40;;;;;;;8.90;8.00;;;;;;;24.54;100.00;98842.81;5133888;27;20256;-77
2023/06/26 07:43:09;;;;;;;7.72;6.85;;;;;;;24.86;100.00;98840.53;5129960;27;20205;-77
2023/06/26 07:45:39;;;;;;;8.82;7.57;;;;;;;25.00;100.00;98845.03;5128864;27;20222;-76
2023/06/26 07:48:07;;;;;;;8.23;7.10;;;;;;;25.25;100.00;98843.53;5126485;27;20198;-77
2023/06/26 07:50:36;;;;;;;8.80;7.30;;;;;;;25.19;100.00;98847.06;5126697;27;20216;-77
2023/06/26 07:53:05;;;;;;;9.88;7.32;;;;;;;25.48;100.00;98848.69;5124734;27;20202;-77
2023/06/26 07:55:33;;;;;;;8.10;7.10;;;;;;;25.47;100.00;98849.69;5133876;27;20236;-77
2023/06/26 07:58:02;;;;;;;8.07;6.53;;;;;;;25.55;93.09;98845.97;5127120;27;20238;-77
2023/06/26 08:00:30;;;;;;;9.65;6.97;;;;;;;25.27;89.46;98840.63;5126120;27;20239;-77
2023/06/26 08:03:00;;;;;;;10.05;6.70;;;;;;;25.56;87.89;98843.06;5127206;27;20215;-77
2023/06/26 08:05:29;;;;;;;11.30;7.07;;;;;;;25.57;96.21;98844.72;5125690;27;20194;-77
2023/06/26 08:07:59;;;;;;;8.35;6.50;;;;;;;25.98;92.50;98841.16;5122360;27;20194;-77
2023/06/26 08:10:28;;;;;;;8.95;6.82;;;;;;;26.17;87.49;98851.25;5126008;27;20216;-77
2023/06/26 08:12:56;;;;;;;7.85;6.50;;;;;;;25.86;79.68;98845.50;5130609;27;20269;-77
2023/06/26 08:15:24;;;;;;;7.63;6.78;;;;;;;26.40;80.08;98837.28;5128334;27;20289;-77
2023/06/26 08:17:53;;;;;;;7.55;6.57;;;;;;;26.80;78.00;98848.16;5121518;27;20262;-77
2023/06/26 08:20:23;;;;;;;8.38;6.63;;;;;;;26.61;74.97;98847.13;5126453;27;20217;-77
2023/06/26 08:22:53;;;;;;;9.93;7.15;;;;;;;26.63;72.06;98853.19;5127805;27;20208;-78
2023/06/26 08:25:21;;;;;;;7.50;6.60;;;;;;;26.60;73.45;98845.44;5123865;27;20263;-77
2023/06/26 08:27:52;;;;;;;8.65;7.07;;;;;;;26.58;74.86;98844.00;5128901;27;20228;-77
2023/06/26 08:30:21;;;;;;;7.80;6.57;;;;;;;26.43;78.93;98838.75;5132402;27;20657;-78
2023/06/26 08:32:51;;;;;;;7.78;6.53;;;;;;;26.77;76.92;98829.56;5130469;27;20204;-78
2023/06/26 08:35:19;;;;;;;9.00;6.88;;;;;;;26.92;73.31;98829.31;5123993;27;20224;-77
2023/06/26 08:37:49;;;;;;;7.35;6.65;;;;;;;26.60;75.84;98833.75;5126252;27;20198;-78
2023/06/26 08:40:18;;;;;;;7.20;6.50;;;;;;;26.76;74.45;98815.16;5130144;27;20340;-77
2023/06/26 08:42:47;;;;;;;9.10;6.70;;;;;;;26.69;73.13;98819.75;5132156;27;20190;-77
2023/06/26 08:45:15;;;;;;;8.13;6.82;;;;;;;26.92;70.07;98824.72;5130455;27;20204;-77
2023/06/26 08:47:46;;;;;;;8.80;6.97;;;;;;;26.89;75.72;98838.75;5131057;27;20190;-77
2023/06/26 08:50:17;;;;;;;8.25;6.72;;;;;;;26.89;75.96;98846.06;5126763;27;20214;-78
2023/06/26 08:52:54;;;;;;;8.50;7.15;;;;;;;26.92;72.60;98843.75;5129889;27;20197;-78
2023/06/26 08:55:27;;;;;;;9.20;6.75;;;;;;;26.67;77.94;98857.16;5133249;27;20213;-77
2023/06/26 08:57:56;;;;;;;8.52;6.95;;;;;;;26.82;80.63;98851.50;5131007;27;20259;-78
2023/06/26 09:00:26;;;;;;;11.20;7.20;;;;;;;26.64;83.30;98854.03;5128194;27;20222;-78
2023/06/26 09:02:54;;;;;;;9.15;6.68;;;;;;;26.69;86.53;98855.06;5127941;27;20197;-78
2023/06/26 09:05:23;;;;;;;8.45;7.07;;;;;;;26.96;87.76;98861.34;5128435;27;20221;-77
2023/06/26 09:07:55;;;;;;;9.15;7.45;;;;;;;26.10;89.46;98861.25;5131816;27;20436;-77
2023/06/26 09:10:26;;;;;;;7.85;6.40;;;;;;;26.56;89.24;98863.22;5130087;27;20221;-78
2023/06/26 09:12:57;;;;;;;8.10;7.30;;;;;;;26.11;91.24;98864.78;5131817;27;20277;-77
2023/06/26 09:15:25;;;;;;;10.38;7.38;;;;;;;26.23;90.53;98876.72;5130142;27;20224;-76
2023/06/26 09:17:58;;;;;;;8.65;7.22;;;;;;;26.58;86.22;98869.28;5133342;27;20218;-77
2023/06/26 09:20:29;;;;;;;9.80;6.93;;;;;;;26.64;86.77;98862.19;5134056;27;20209;-77
2023/06/26 09:22:59;;;;;;;7.97;6.43;;;;;;;27.11;83.57;98855.69;5133774;27;20194;-78
2023/06/26 09:25:27;;;;;;;7.57;6.40;;;;;;;27.30;79.89;98868.41;5131138;27;20186;-78
2023/06/26 09:27:55;;;;;;;9.00;6.75;;;;;;;27.47;80.97;98852.44;5136683;27;20202;-78
2023/06/26 09:30:24;;;;;;;8.48;6.75;;;;;;;27.69;81.31;98849.47;5135440;27;20186;-77
2023/06/26 09:32:54;;;;;;;7.47;6.60;;;;;;;27.90;78.92;98854.63;5129984;27;20198;-77
2023/06/26 09:35:22;;;;;;;8.32;6.80;;;;;;;27.91;77.30;98853.56;5128273;27;20238;-78
2023/06/26 09:37:51;;;;;;;8.43;6.88;;;;;;;27.91;80.86;98859.03;5128301;27;20190;-78
2023/06/26 09:40:21;;;;;;;9.95;7.28;;;;;;;27.90;80.06;98860.06;5127580;27;20683;-78
2023/06/26 09:42:49;;;;;;;8.05;7.05;;;;;;;27.91;78.71;98859.84;5136505;27;20201;-78
2023/06/26 09:45:22;;;;;;;10.13;7.07;;;;;;;28.02;79.86;98865.66;5127693;27;20680;-77
2023/06/26 09:47:52;;;;;;;10.10;6.80;;;;;;;27.85;82.77;98859.88;5133464;27;20226;-77
2023/06/26 09:50:27;;;;;;;8.23;7.10;;;;;;;27.64;84.84;98860.97;5128600;27;20195;-77
2023/06/26 09:52:56;;;;;;;10.05;6.97;;;;;;;27.16;88.83;98865.94;5131729;27;20680;-77
2023/06/26 09:55:27;;;;;;;8.65;6.82;;;;;;;27.22;89.53;98876.81;5128929;27;20218;-77
2023/06/26 09:57:58;;;;;;;10.07;7.05;;;;;;;27.14;92.12;98878.91;5133336;27;20289;-77
2023/06/26 10:00:27;;;;;;;9.85;7.60;;;;;;;27.12;92.42;98870.97;5134692;27;20197;-77
2023/06/26 10:02:57;;;;;;;10.82;7.10;;;;;;;27.38;89.24;98868.16;5096758;27;20370;-77
2023/06/26 10:05:26;;;;;;;7.30;6.45;;;;;;;27.62;87.19;98858.47;5136014;27;20263;-78
2023/06/26 10:07:55;;;;;;;9.93;6.95;;;;;;;27.57;90.31;98863.72;5127863;27;20203;-77
2023/06/26 10:10:26;;;;;;;8.63;6.20;;;;;;;28.11;84.38;98869.81;5133071;27;20186;-77
2023/06/26 10:13:00;;;;;;;8.88;6.28;;;;;;;28.20;80.88;98885.66;5130753;27;20232;-77
2023/06/26 10:15:31;;;;;;;8.93;6.43;;;;;;;27.80;81.18;98865.97;5134435;27;20221;-77
2023/06/26 10:17:59;;;;;;;8.68;6.28;;;;;;;27.22;88.44;98860.50;5135815;27;20277;-78
2023/06/26 10:20:28;;;;;;;10.63;6.82;;;;;;;27.45;90.50;98857.28;5129945;27;20199;-78
2023/06/26 10:23:01;;;;;;;8.73;6.57;;;;;;;27.44;88.69;98860.22;5130073;27;20191;-78
2023/06/26 10:25:32;;;;;;;10.05;6.97;;;;;;;27.64;88.76;98863.72;5127579;27;20269;-77
2023/06/26 10:28:03;;;;;;;8.20;6.72;;;;;;;27.97;85.47;98869.03;5079190;27;20201;-78
2023/06/26 10:30:37;;;;;;;8.02;5.70;;;;;;;28.12;83.86;98869.59;5126657;27;20203;-77
2023/06/26 10:33:08;;;;;;;7.38;5.57;;;;;;;27.96;82.97;98875.53;5127420;27;20257;-77
2023/06/26 10:35:43;;;;;;;8.05;5.95;;;;;;;27.94;80.41;98878.47;5124811;27;20218;-76
2023/06/26 10:38:13;;;;;;;9.18;6.43;;;;;;;28.49;80.05;98867.91;5125415;27;20194;-77
2023/06/26 10:40:45;;;;;;;7.25;6.18;;;;;;;28.46;72.29;98876.50;5131992;27;20225;-77
2023/06/26 10:43:15;;;;;;;6.03;5.28;;;;;;;28.23;70.58;98879.78;5129626;27;20199;-77
2023/06/26 10:45:46;;;;;;;8.35;5.65;;;;;;;28.93;68.55;98885.19;5133422;27;20201;-77
2023/06/26 10:48:16;;;;;;;7.65;5.45;;;;;;;29.00;65.52;98877.78;5133166;27;20195;-77
2023/06/26 10:50:47;;;;;;;6.22;5.25;;;;;;;28.90;64.42;98868.44;5131729;27;20198;-77
2023/06/26 10:53:24;;;;;;;5.65;4.85;;;;;;;29.19;65.60;98877.81;5130296;27;20721;-77
2023/06/26 10:55:59;;;;;;;8.40;5.78;;;;;;;28.93;63.54;98889.81;5131994;27;20362;-78
2023/06/26 10:58:34;;;;;;;8.88;5.45;;;;;;;29.06;66.81;98881.53;5131946;27;20225;-76
2023/06/26 11:01:22;;;;;;;6.10;5.38;;;;;;;29.02;66.92;98889.28;5130443;27;20237;-76
2023/06/26 11:04:03;;;;;;;6.35;5.75;;;;;;;29.14;67.85;98885.84;5134434;27;20209;-76
2023/06/26 11:06:32;;;;;;;7.78;5.72;;;;;;;28.82;69.69;98883.16;5131665;27;20644;-76
2023/06/26 11:09:03;;;;;;;6.78;5.55;;;;;;;28.81;68.72;98897.84;5134727;27;20187;-76
2023/06/26 11:12:01;;;;;;;7.68;5.90;;;;;;;28.78;72.05;98888.22;5134696;27;20281;-77
2023/06/26 11:14:32;;;;;;;9.55;6.40;;;;;;;27.87;76.26;98890.44;5131447;27;20201;-76
2023/06/26 11:17:03;;;;;;;9.27;6.43;;;;;;;28.16;78.66;98889.88;5124923;27;20221;-77
2023/06/26 11:19:31;;;;;;;13.75;6.32;;;;;;;28.72;78.06;98886.38;5131534;27;20202;-77
2023/06/26 11:22:05;;;;;;;8.45;5.40;;;;;;;28.72;73.78;98891.00;5127605;27;20213;-77
2023/06/26 11:24:34;;;;;;;6.32;5.07;;;;;;;28.38;71.03;98881.41;5126256;27;20198;-76
2023/06/26 11:27:06;;;;;;;9.40;5.80;;;;;;;28.59;70.05;98885.66;5134685;27;20201;-77
2023/06/26 11:29:34;;;;;;;9.45;5.32;;;;;;;28.84;68.74;98911.03;5126952;27;20250;-77
2023/06/26 11:32:05;;;;;;;8.75;4.93;;;;;;;28.73;64.84;98907.13;5129803;27;20190;-77